createdAt,value
2023-03-06T00:00:21.703Z,21.30
2023-03-06T00:01:21.686Z,21.80
2023-03-06T00:02:21.707Z,20.10
2023-03-06T00:03:21.721Z,20.30
2023-03-06T00:04:21.718Z,20.20
2023-03-06T00:05:21.658Z,21.10
2023-03-06T00:06:21.703Z,20.40
2023-03-06T00:07:21.669Z,21.10
2023-03-06T00:08:21.634Z,21.30
2023-03-06T00:09:21.662Z,21.80
2023-03-06T00:10:21.643Z,21.30
2023-03-06T00:11:21.625Z,20.20
2023-03-06T00:12:21.623Z,21.60
2023-03-06T00:13:21.648Z,20.50
2023-03-06T00:14:21.617Z,21.20
2023-03-06T00:15:21.589Z,21.20
2023-03-06T00:16:21.682Z,20.80
2023-03-06T00:17:21.613Z,20.20
2023-03-06T00:18:21.559Z,20.20
2023-03-06T00:19:21.577Z,20.30
2023-03-06T00:20:21.600Z,20.70
2023-03-06T00:21:21.602Z,21.10
2023-03-06T00:22:21.567Z,21.30
2023-03-06T00:23:21.518Z,21.20
2023-03-06T00:24:21.509Z,21.20
2023-03-06T00:25:21.536Z,20.80
2023-03-06T00:26:21.528Z,20.50
2023-03-06T00:27:21.509Z,20.20
2023-03-06T00:28:21.487Z,19.70
2023-03-06T00:29:21.488Z,19.40
2023-03-06T00:30:21.521Z,20.20
2023-03-06T00:31:21.522Z,19.60
2023-03-06T00:32:21.534Z,19.40
2023-03-06T00:33:21.478Z,19.90
2023-03-06T00:34:21.479Z,20.30
2023-03-06T00:35:21.471Z,19.90
2023-03-06T00:36:21.456Z,20.80
2023-03-06T00:37:22.110Z,19.90
2023-03-06T00:38:21.476Z,19.80
2023-03-06T00:39:21.405Z,20.10
2023-03-06T00:40:21.509Z,19.60
2023-03-06T00:41:21.407Z,20.40
2023-03-06T00:42:21.386Z,19.80
2023-03-06T00:43:21.454Z,19.70
2023-03-06T00:44:21.391Z,19.10
2023-03-06T00:45:21.402Z,19.60
2023-03-06T00:46:21.385Z,20.90
2023-03-06T00:47:21.371Z,20.80
2023-03-06T00:48:21.349Z,19.50
2023-03-06T00:49:21.405Z,20.20
2023-03-06T00:50:21.350Z,19.00
2023-03-06T00:51:21.321Z,20.40
2023-03-06T00:52:21.324Z,20.80
2023-03-06T00:53:21.341Z,20.80
2023-03-06T00:54:21.309Z,20.30
2023-03-06T00:55:21.298Z,19.50
2023-03-06T00:56:21.291Z,19.40
2023-03-06T00:57:21.263Z,19.80
2023-03-06T00:58:21.300Z,20.50
2023-03-06T00:59:21.334Z,19.00
2023-03-06T01:00:21.332Z,19.90
2023-03-06T01:01:21.346Z,17.60
2023-03-06T01:02:21.301Z,19.60
2023-03-06T01:03:21.237Z,19.20
2023-03-06T01:04:21.259Z,19.50
2023-03-06T01:05:21.283Z,18.10
2023-03-06T01:06:21.192Z,19.40
2023-03-06T01:07:21.230Z,20.00
2023-03-06T01:08:21.208Z,18.10
2023-03-06T01:09:21.217Z,18.90
2023-03-06T01:10:21.206Z,19.50
2023-03-06T01:11:21.177Z,19.80
2023-03-06T01:12:23.385Z,18.80
2023-03-06T01:13:22.156Z,18.80
2023-03-06T01:14:21.207Z,18.70
2023-03-06T01:15:21.161Z,19.10
2023-03-06T01:16:21.239Z,20.10
2023-03-06T01:17:21.162Z,19.40
2023-03-06T01:18:21.166Z,19.60
2023-03-06T01:19:21.131Z,19.20
2023-03-06T01:20:21.103Z,20.40
2023-03-06T01:21:21.110Z,19.70
2023-03-06T01:22:21.094Z,19.30
2023-03-06T01:23:21.078Z,20.20
2023-03-06T01:24:21.110Z,19.60
2023-03-06T01:25:21.093Z,20.10
2023-03-06T01:26:21.034Z,19.90
2023-03-06T01:27:21.065Z,20.00
2023-03-06T01:28:21.065Z,20.00
2023-03-06T01:29:21.070Z,20.60
2023-03-06T01:30:21.037Z,19.20
2023-03-06T01:31:21.117Z,19.60
2023-03-06T01:32:21.014Z,19.80
2023-03-06T01:33:21.029Z,19.30
2023-03-06T01:34:21.049Z,19.90
2023-03-06T01:35:21.025Z,20.10
2023-03-06T01:36:20.993Z,20.10
2023-03-06T01:37:21.004Z,19.50
2023-03-06T01:38:20.977Z,20.20
2023-03-06T01:39:20.993Z,20.90
2023-03-06T01:40:20.979Z,20.30
2023-03-06T01:41:20.952Z,20.00
2023-03-06T01:42:20.931Z,19.00
2023-03-06T01:43:20.940Z,19.70
2023-03-06T01:44:20.919Z,20.10
2023-03-06T01:45:20.919Z,20.10
2023-03-06T01:46:20.892Z,21.10
2023-03-06T01:47:20.927Z,19.90
2023-03-06T01:48:20.880Z,20.00
2023-03-06T01:49:20.958Z,20.20
2023-03-06T01:50:53.588Z,20.30
2023-03-06T01:51:20.870Z,20.90
2023-03-06T01:52:20.898Z,21.00
2023-03-06T01:53:20.871Z,21.10
2023-03-06T01:54:20.828Z,20.40
2023-03-06T01:55:20.841Z,20.30
2023-03-06T01:56:20.825Z,19.90
2023-03-06T01:57:20.838Z,20.70
2023-03-06T01:58:21.617Z,20.00
2023-03-06T01:59:20.804Z,20.20
2023-03-06T02:00:20.807Z,21.60
2023-03-06T02:01:20.820Z,20.60
2023-03-06T02:02:21.816Z,20.80
2023-03-06T02:03:21.786Z,20.90
2023-03-06T02:04:20.801Z,21.00
2023-03-06T02:05:20.790Z,21.10
2023-03-06T02:06:20.756Z,20.80
2023-03-06T02:07:20.767Z,21.80
2023-03-06T02:08:20.832Z,21.20
2023-03-06T02:09:20.788Z,21.30
2023-03-06T02:10:20.771Z,21.50
2023-03-06T02:11:20.730Z,20.70
2023-03-06T02:12:20.716Z,22.20
2023-03-06T02:13:20.732Z,21.50
2023-03-06T02:14:20.690Z,21.70
2023-03-06T02:15:20.685Z,21.40
2023-03-06T02:16:20.712Z,20.70
2023-03-06T02:17:20.682Z,21.40
2023-03-06T02:18:20.670Z,21.10
2023-03-06T02:19:20.687Z,21.90
2023-03-06T02:20:20.654Z,22.10
2023-03-06T02:21:20.658Z,21.70
2023-03-06T02:22:20.643Z,20.80
2023-03-06T02:23:20.618Z,20.30
2023-03-06T02:24:20.615Z,20.20
2023-03-06T02:25:20.647Z,20.60
2023-03-06T02:26:20.613Z,21.00
2023-03-06T02:27:21.137Z,19.90
2023-03-06T02:28:20.580Z,20.50
2023-03-06T02:29:20.575Z,21.30
2023-03-06T02:30:20.582Z,20.50
2023-03-06T02:31:20.565Z,20.40
2023-03-06T02:32:20.592Z,20.40
2023-03-06T02:33:21.119Z,20.80
2023-03-06T02:34:21.568Z,20.20
2023-03-06T02:35:20.585Z,19.70
2023-03-06T02:36:20.535Z,19.90
2023-03-06T02:37:20.510Z,19.30
2023-03-06T02:38:20.518Z,19.10
2023-03-06T02:39:20.513Z,19.90
2023-03-06T02:40:20.554Z,20.20
2023-03-06T02:41:20.485Z,20.00
2023-03-06T02:42:20.494Z,19.70
2023-03-06T02:43:20.494Z,20.20
2023-03-06T02:44:20.481Z,19.50
2023-03-06T02:45:20.463Z,20.00
2023-03-06T02:46:20.520Z,20.90
2023-03-06T02:47:20.484Z,20.10
2023-03-06T02:48:20.426Z,20.30
2023-03-06T02:49:20.448Z,20.10
2023-03-06T02:50:20.462Z,21.60
2023-03-06T02:51:20.415Z,19.70
2023-03-06T02:52:20.464Z,19.90
2023-03-06T02:53:20.422Z,19.70
2023-03-06T02:54:20.482Z,19.60
2023-03-06T02:55:20.394Z,19.60
2023-03-06T02:56:20.390Z,19.80
2023-03-06T02:57:20.370Z,19.80
2023-03-06T02:58:20.413Z,20.30
2023-03-06T02:59:20.344Z,20.20
2023-03-06T03:00:20.342Z,20.80
2023-03-06T03:01:20.336Z,19.50
2023-03-06T03:02:20.323Z,20.10
2023-03-06T03:03:20.326Z,19.90
2023-03-06T03:04:20.301Z,20.50
2023-03-06T03:05:20.309Z,19.40
2023-03-06T03:06:20.296Z,19.60
2023-03-06T03:07:20.310Z,19.70
2023-03-06T03:08:20.266Z,20.50
2023-03-06T03:09:20.284Z,19.40
2023-03-06T03:10:20.272Z,19.70
2023-03-06T03:11:20.279Z,19.10
2023-03-06T03:12:21.282Z,18.50
2023-03-06T03:13:20.231Z,18.90
2023-03-06T03:14:20.230Z,20.10
2023-03-06T03:15:20.217Z,19.50
2023-03-06T03:16:20.261Z,19.50
2023-03-06T03:17:20.194Z,19.40
2023-03-06T03:18:20.228Z,19.40
2023-03-06T03:19:20.206Z,19.30
2023-03-06T03:20:20.187Z,18.50
2023-03-06T03:21:20.187Z,18.80
2023-03-06T03:22:20.155Z,19.30
2023-03-06T03:23:20.160Z,19.80
2023-03-06T03:24:20.188Z,19.80
2023-03-06T03:25:20.146Z,19.50
2023-03-06T03:26:20.190Z,20.10
2023-03-06T03:27:20.122Z,19.40
2023-03-06T03:28:20.124Z,20.20
2023-03-06T03:29:20.128Z,19.80
2023-03-06T03:30:20.105Z,19.20
2023-03-06T03:31:20.101Z,19.20
2023-03-06T03:32:20.131Z,19.90
2023-03-06T03:33:20.073Z,20.30
2023-03-06T03:34:20.114Z,19.80
2023-03-06T03:35:20.108Z,18.90
2023-03-06T03:36:20.053Z,19.20
2023-03-06T03:37:20.026Z,20.10
2023-03-06T03:38:20.044Z,20.10
2023-03-06T03:39:20.064Z,19.70
2023-03-06T03:40:20.022Z,20.40
2023-03-06T03:41:20.029Z,19.80
2023-03-06T03:42:19.999Z,19.70
2023-03-06T03:43:20.018Z,19.40
2023-03-06T03:44:19.997Z,19.20
2023-03-06T03:45:20.007Z,19.70
2023-03-06T03:46:20.042Z,19.70
2023-03-06T04:02:41.853Z,14.70
2023-03-06T04:03:41.853Z,17.30
2023-03-06T04:04:41.849Z,19.60
2023-03-06T04:05:41.824Z,20.70
2023-03-06T04:06:43.004Z,21.30
2023-03-06T04:07:42.958Z,20.70
2023-03-06T04:08:42.941Z,20.90
2023-03-06T04:09:42.937Z,20.50
2023-03-06T04:10:42.957Z,21.20
2023-03-06T04:11:42.916Z,22.10
2023-03-06T04:12:42.931Z,21.20
2023-03-06T04:13:42.897Z,22.40
2023-03-06T04:14:42.896Z,20.80
2023-03-06T04:15:42.918Z,21.40
2023-03-06T04:16:42.886Z,21.70
2023-03-06T04:17:42.881Z,21.90
2023-03-06T04:18:42.867Z,21.90
2023-03-06T04:19:42.861Z,21.40
2023-03-06T04:20:42.919Z,21.00
2023-03-06T04:21:42.844Z,22.10
2023-03-06T04:22:42.834Z,22.20
2023-03-06T04:23:42.815Z,21.20
2023-03-06T04:24:42.844Z,21.80
2023-03-06T04:25:42.804Z,20.90
2023-03-06T04:26:42.795Z,21.20
2023-03-06T04:27:42.792Z,20.60
2023-03-06T04:28:42.796Z,20.10
2023-03-06T04:30:14.711Z,20.80
2023-03-06T04:30:42.806Z,21.50
2023-03-06T04:31:42.867Z,19.80
2023-03-06T04:32:42.851Z,19.90
2023-03-06T04:33:42.776Z,19.60
2023-03-06T04:34:42.769Z,19.00
2023-03-06T04:35:42.796Z,18.20
2023-03-06T04:36:43.008Z,19.40
2023-03-06T04:37:42.739Z,19.30
2023-03-06T04:38:42.741Z,19.10
2023-03-06T04:39:42.705Z,19.00
2023-03-06T04:40:44.799Z,18.10
2023-03-06T04:41:43.737Z,18.90
2023-03-06T04:42:42.709Z,19.70
2023-03-06T04:43:42.744Z,18.30
2023-03-06T04:44:43.573Z,19.10
2023-03-06T04:45:42.674Z,19.50
2023-03-06T04:46:42.707Z,19.00
2023-03-06T04:47:42.632Z,17.70
2023-03-06T04:48:42.651Z,19.10
2023-03-06T04:49:42.665Z,18.70
2023-03-06T04:50:42.669Z,19.60
2023-03-06T04:51:42.621Z,18.80
2023-03-06T04:52:42.618Z,19.50
2023-03-06T04:53:42.655Z,18.50
2023-03-06T04:54:43.582Z,19.30
2023-03-06T04:55:42.601Z,20.10
2023-03-06T04:56:42.599Z,21.10
2023-03-06T04:57:42.565Z,19.70
2023-03-06T04:58:42.610Z,18.60
2023-03-06T04:59:42.558Z,19.50
2023-03-06T05:00:42.588Z,19.10
2023-03-06T05:01:42.552Z,19.50
2023-03-06T05:02:42.556Z,19.90
2023-03-06T05:03:42.551Z,18.80
2023-03-06T05:04:42.516Z,19.70
2023-03-06T05:05:42.542Z,19.20
2023-03-06T05:06:42.537Z,19.20
2023-03-06T05:07:42.501Z,19.30
2023-03-06T05:08:42.570Z,19.70
2023-03-06T05:09:42.465Z,18.10
2023-03-06T05:10:42.522Z,20.00
2023-03-06T05:11:42.539Z,19.20
2023-03-06T05:12:42.528Z,19.90
2023-03-06T05:13:43.095Z,18.60
2023-03-06T05:14:42.442Z,20.00
2023-03-06T05:15:42.449Z,20.00
2023-03-06T05:16:42.489Z,19.50
2023-03-06T05:17:42.426Z,19.80
2023-03-06T05:18:42.450Z,19.80
2023-03-06T05:19:42.415Z,18.70
2023-03-06T05:20:42.434Z,19.20
2023-03-06T05:21:42.446Z,22.00
2023-03-06T05:22:42.393Z,21.20
2023-03-06T05:23:42.520Z,19.50
2023-03-06T05:24:42.411Z,20.30
2023-03-06T05:25:42.355Z,18.60
2023-03-06T05:26:42.364Z,19.00
2023-03-06T05:27:42.343Z,20.40
2023-03-06T05:28:42.343Z,20.70
2023-03-06T05:29:42.322Z,20.90
2023-03-06T05:30:42.340Z,21.60
2023-03-06T05:31:42.420Z,19.10
2023-03-06T05:32:42.364Z,21.60
2023-03-06T05:33:42.361Z,21.00
2023-03-06T05:34:42.305Z,20.20
2023-03-06T05:35:42.330Z,21.30
2023-03-06T05:36:42.301Z,22.30
2023-03-06T05:37:42.262Z,20.70
2023-03-06T05:38:42.275Z,23.50
2023-03-06T05:39:42.257Z,20.80
2023-03-06T05:40:42.254Z,22.30
2023-03-06T05:41:43.124Z,21.40
2023-03-06T05:42:42.325Z,21.40
2023-03-06T05:43:42.226Z,23.10
2023-03-06T05:44:42.229Z,20.90
2023-03-06T05:45:42.198Z,21.60
2023-03-06T05:46:42.244Z,22.40
2023-03-06T05:47:42.285Z,22.40
2023-03-06T05:48:42.185Z,19.60
2023-03-06T05:49:42.207Z,22.40
2023-03-06T05:50:42.171Z,22.20
2023-03-06T05:51:42.171Z,22.90
2023-03-06T05:52:42.161Z,21.90
2023-03-06T05:53:42.144Z,23.80
2023-03-06T05:54:42.192Z,22.70
2023-03-06T05:55:42.127Z,22.10
2023-03-06T05:56:42.938Z,20.40
2023-03-06T05:57:43.113Z,21.10
2023-03-06T05:58:42.124Z,21.10
2023-03-06T05:59:43.208Z,20.50
2023-03-06T06:00:42.090Z,21.80
2023-03-06T06:01:42.092Z,20.10
2023-03-06T06:02:42.131Z,20.50
2023-03-06T06:03:42.096Z,21.70
2023-03-06T06:04:42.049Z,22.10
2023-03-06T06:05:42.050Z,21.00
2023-03-06T06:06:43.125Z,21.50
2023-03-06T06:07:42.116Z,21.70
2023-03-06T06:08:42.015Z,21.00
2023-03-06T06:09:42.021Z,20.80
2023-03-06T06:10:42.049Z,19.70
2023-03-06T06:11:42.060Z,21.70
2023-03-06T06:12:42.001Z,21.40
2023-03-06T06:13:41.982Z,19.90
2023-03-06T06:14:41.993Z,22.50
2023-03-06T06:15:41.987Z,21.70
2023-03-06T06:16:41.974Z,22.90
2023-03-06T06:17:42.007Z,22.20
2023-03-06T06:18:41.994Z,20.60
2023-03-06T06:19:41.941Z,21.20
2023-03-06T06:20:41.919Z,17.50
2023-03-06T06:21:42.168Z,21.10
2023-03-06T06:22:42.912Z,19.80
2023-03-06T06:23:41.943Z,21.50
2023-03-06T06:24:41.900Z,20.80
2023-03-06T06:25:41.888Z,20.70
2023-03-06T06:26:41.884Z,20.20
2023-03-06T06:27:41.907Z,21.10
2023-03-06T06:28:42.141Z,20.50
2023-03-06T06:29:41.874Z,19.50
2023-03-06T06:30:41.858Z,21.80
2023-03-06T06:31:41.849Z,20.90
2023-03-06T06:32:41.933Z,21.10
2023-03-06T06:33:41.850Z,20.80
2023-03-06T06:34:41.806Z,21.30
2023-03-06T06:35:42.472Z,19.90
2023-03-06T06:36:41.857Z,20.30
2023-03-06T06:37:41.806Z,19.20
2023-03-06T06:38:41.838Z,19.40
2023-03-06T06:39:41.780Z,18.90
2023-03-06T06:40:41.767Z,19.60
2023-03-06T06:41:59.475Z,20.00
2023-03-06T06:42:43.772Z,21.10
2023-03-06T06:43:41.800Z,20.50
2023-03-06T06:44:41.735Z,22.00
2023-03-06T06:45:41.741Z,21.00
2023-03-06T06:47:43.768Z,20.50
2023-03-06T06:48:41.719Z,20.40
2023-03-06T06:49:41.702Z,22.70
2023-03-06T06:50:41.824Z,21.40
2023-03-06T06:51:41.681Z,21.50
2023-03-06T06:52:41.699Z,21.70
2023-03-06T06:53:41.692Z,21.80
2023-03-06T06:54:41.773Z,21.30
2023-03-06T06:55:41.657Z,22.20
2023-03-06T06:56:41.653Z,21.30
2023-03-06T06:57:41.639Z,21.20
2023-03-06T06:58:41.640Z,21.00
2023-03-06T06:59:41.710Z,20.80
2023-03-06T07:00:41.619Z,19.70
2023-03-06T07:01:43.554Z,20.70
2023-03-06T07:02:41.638Z,19.30
2023-03-06T07:03:41.624Z,18.40
2023-03-06T07:04:56.166Z,17.30
2023-03-06T07:05:43.568Z,19.10
2023-03-06T07:06:41.602Z,20.50
2023-03-06T07:07:41.647Z,21.00
2023-03-06T07:08:41.571Z,18.70
2023-03-06T07:09:41.551Z,19.90
2023-03-06T07:10:41.569Z,19.40
2023-03-06T07:11:41.569Z,18.10
2023-03-06T07:12:41.547Z,19.50
2023-03-06T07:13:41.537Z,19.10
2023-03-06T07:14:41.516Z,17.00
2023-03-06T07:15:41.538Z,16.90
2023-03-06T07:16:41.522Z,17.20
2023-03-06T07:17:41.488Z,17.00
2023-03-06T07:18:41.488Z,17.80
2023-03-06T07:19:41.475Z,16.80
2023-03-06T07:20:41.476Z,16.50
2023-03-06T07:21:41.476Z,16.10
2023-03-06T07:22:50.896Z,16.30
2023-03-06T07:23:43.452Z,17.40
2023-03-06T07:24:41.456Z,16.10
2023-03-06T07:25:41.437Z,16.80
2023-03-06T07:26:41.420Z,16.10
2023-03-06T07:27:41.479Z,16.80
2023-03-06T07:28:51.994Z,18.00
2023-03-06T07:29:43.404Z,15.50
2023-03-06T07:30:41.441Z,13.20
2023-03-06T07:31:41.389Z,12.70
2023-03-06T07:32:41.433Z,16.80
2023-03-06T07:33:41.409Z,14.60
2023-03-06T07:34:41.376Z,13.90
2023-03-06T07:35:41.388Z,16.70
2023-03-06T07:36:42.106Z,15.90
2023-03-06T07:37:41.345Z,16.80
2023-03-06T07:38:41.364Z,15.90
2023-03-06T07:39:41.328Z,16.30
2023-03-06T07:40:41.298Z,17.00
2023-03-06T07:41:41.307Z,15.90
2023-03-06T07:42:41.322Z,15.80
2023-03-06T07:43:41.345Z,16.30
2023-03-06T07:44:41.334Z,15.90
2023-03-06T07:45:41.269Z,15.50
2023-03-06T07:46:41.381Z,13.30
2023-03-06T07:47:41.259Z,14.50
2023-03-06T07:48:41.251Z,15.50
2023-03-06T07:49:42.285Z,14.60
2023-03-06T07:50:41.235Z,15.30
2023-03-06T07:51:41.268Z,16.30
2023-03-06T07:52:41.241Z,16.70
2023-03-06T07:53:41.237Z,16.40
2023-03-06T07:54:41.209Z,14.10
2023-03-06T07:55:41.232Z,15.60
2023-03-06T07:56:41.233Z,15.90
2023-03-06T07:57:41.228Z,15.50
2023-03-06T07:58:41.174Z,16.10
2023-03-06T07:59:41.187Z,15.30
2023-03-06T08:00:41.214Z,14.80
2023-03-06T08:01:41.254Z,15.50
2023-03-06T08:02:41.182Z,16.50
2023-03-06T08:03:41.218Z,16.20
2023-03-06T08:04:41.225Z,13.90
2023-03-06T08:05:41.153Z,15.40
2023-03-06T08:06:41.165Z,16.20
2023-03-06T08:07:41.120Z,15.30
2023-03-06T08:08:41.114Z,14.90
2023-03-06T08:09:41.137Z,17.20
2023-03-06T08:10:41.713Z,14.80
2023-03-06T08:11:41.155Z,16.40
2023-03-06T08:12:41.140Z,15.90
2023-03-06T08:13:41.073Z,16.10
2023-03-06T08:14:41.149Z,13.90
2023-03-06T08:15:41.044Z,15.70
2023-03-06T08:16:41.672Z,16.40
2023-03-06T08:17:41.034Z,16.80
2023-03-06T08:18:41.022Z,17.10
2023-03-06T08:19:41.152Z,16.50
2023-03-06T08:20:40.998Z,16.30
2023-03-06T08:21:41.005Z,15.70
2023-03-06T08:22:41.087Z,15.80
2023-03-06T08:23:41.000Z,17.40
2023-03-06T08:24:40.985Z,17.10
2023-03-06T08:25:40.987Z,17.80
2023-03-06T08:26:40.970Z,17.10
2023-03-06T08:27:41.001Z,15.50
2023-03-06T08:28:40.944Z,15.10
2023-03-06T08:29:40.932Z,15.00
2023-03-06T08:30:41.045Z,15.50
2023-03-06T08:31:41.044Z,14.80
2023-03-06T08:32:40.983Z,14.00
2023-03-06T08:33:40.935Z,13.30
2023-03-06T08:34:41.014Z,12.50
2023-03-06T08:35:40.923Z,13.10
2023-03-06T08:36:40.891Z,13.50
2023-03-06T08:37:40.998Z,14.10
2023-03-06T08:38:40.892Z,13.50
2023-03-06T08:39:40.922Z,14.10
2023-03-06T08:40:40.985Z,15.60
2023-03-06T08:41:40.840Z,15.00
2023-03-06T08:42:40.841Z,11.70
2023-03-06T08:43:40.854Z,12.80
2023-03-06T08:44:40.863Z,13.90
2023-03-06T08:45:40.891Z,13.60
2023-03-06T08:46:40.813Z,14.70
2023-03-06T08:47:40.789Z,13.80
2023-03-06T08:48:40.816Z,11.30
2023-03-06T08:49:40.792Z,10.90
2023-03-06T08:50:40.849Z,10.90
2023-03-06T08:51:40.785Z,11.70
2023-03-06T08:52:40.782Z,13.30
2023-03-06T08:53:43.573Z,12.80
2023-03-06T08:54:41.808Z,14.00
2023-03-06T08:55:40.771Z,12.70
2023-03-06T08:56:40.727Z,12.10
2023-03-06T08:57:40.721Z,12.30
2023-03-06T08:58:40.738Z,12.90
2023-03-06T08:59:40.738Z,11.30
2023-03-06T09:00:40.776Z,11.70
2023-03-06T09:01:40.731Z,11.90
2023-03-06T09:02:40.728Z,11.40
2023-03-06T09:03:40.680Z,12.60
2023-03-06T09:04:40.686Z,12.20
2023-03-06T09:05:40.670Z,13.20
2023-03-06T09:06:40.660Z,12.70
2023-03-06T09:07:41.646Z,12.20
2023-03-06T09:08:40.663Z,11.80
2023-03-06T09:09:40.668Z,10.60
2023-03-06T09:10:40.690Z,12.20
2023-03-06T09:11:40.682Z,11.60
2023-03-06T09:12:49.801Z,12.00
2023-03-06T09:13:42.683Z,12.40
2023-03-06T09:14:40.589Z,12.20
2023-03-06T09:15:40.649Z,10.80
2023-03-06T09:16:40.610Z,10.60
2023-03-06T09:17:40.630Z,11.10
2023-03-06T09:18:41.222Z,12.30
2023-03-06T09:19:40.539Z,11.40
2023-03-06T09:20:40.572Z,10.30
2023-03-06T09:21:40.815Z,9.30
2023-03-06T09:22:40.558Z,11.80
2023-03-06T09:23:40.639Z,10.30
2023-03-06T09:24:40.511Z,11.00
2023-03-06T09:25:41.177Z,10.80
2023-03-06T09:26:45.997Z,10.90
2023-03-06T09:27:42.500Z,9.90
2023-03-06T09:28:40.524Z,10.50
2023-03-06T09:29:40.546Z,10.70
2023-03-06T09:30:40.644Z,10.50
2023-03-06T09:31:40.534Z,10.20
2023-03-06T09:32:40.494Z,9.80
2023-03-06T09:33:40.497Z,9.40
2023-03-06T09:34:40.441Z,7.60
2023-03-06T09:35:40.502Z,9.20
2023-03-06T09:36:55.272Z,9.00
2023-03-06T09:37:42.432Z,7.90
2023-03-06T09:38:40.573Z,9.10
2023-03-06T09:39:40.470Z,10.00
2023-03-06T09:40:40.990Z,9.50
2023-03-06T09:41:41.336Z,8.70
2023-03-06T09:42:40.464Z,9.70
2023-03-06T09:43:40.372Z,7.50
2023-03-06T09:44:40.383Z,7.10
2023-03-06T09:45:40.395Z,9.40
2023-03-06T09:46:40.375Z,8.80
2023-03-06T09:47:41.329Z,8.50
2023-03-06T09:48:42.086Z,8.60
2023-03-06T09:49:40.363Z,7.70
2023-03-06T09:50:40.324Z,8.70
2023-03-06T09:51:40.316Z,8.00
2023-03-06T09:52:40.346Z,8.60
2023-03-06T09:53:40.294Z,8.00
2023-03-06T09:54:40.293Z,8.50
2023-03-06T09:55:40.270Z,7.80
2023-03-06T09:56:40.290Z,7.80
2023-03-06T09:57:40.288Z,8.60
2023-03-06T09:58:40.298Z,8.60
2023-03-06T09:59:40.325Z,7.80
2023-03-06T10:00:40.346Z,8.00
2023-03-06T10:01:40.352Z,7.90
2023-03-06T10:02:40.491Z,7.30
2023-03-06T10:03:40.243Z,7.90
2023-03-06T10:04:40.344Z,8.00
2023-03-06T10:05:40.212Z,8.00
2023-03-06T10:06:40.220Z,7.60
2023-03-06T10:07:40.210Z,7.90
2023-03-06T10:08:40.202Z,8.20
2023-03-06T10:09:40.234Z,7.90
2023-03-06T10:10:40.211Z,7.40
2023-03-06T10:11:40.151Z,8.10
2023-03-06T10:12:40.180Z,8.60
2023-03-06T10:13:40.188Z,8.00
2023-03-06T10:14:40.167Z,8.60
2023-03-06T10:15:40.151Z,8.70
2023-03-06T10:16:40.113Z,8.50
2023-03-06T10:17:42.657Z,9.20
2023-03-06T10:18:40.176Z,9.10
2023-03-06T10:19:40.114Z,8.80
2023-03-06T10:20:40.109Z,9.40
2023-03-06T10:21:40.167Z,8.70
2023-03-06T10:22:40.156Z,8.50
2023-03-06T10:23:40.081Z,9.10
2023-03-06T10:24:40.090Z,9.80
2023-03-06T10:25:40.042Z,10.60
2023-03-06T10:26:40.209Z,7.70
2023-03-06T10:27:40.049Z,9.40
2023-03-06T10:28:40.124Z,9.20
2023-03-06T10:29:41.060Z,8.40
2023-03-06T10:31:12.048Z,8.60
2023-03-06T10:31:40.039Z,9.80
2023-03-06T10:32:48.204Z,9.80
2023-03-06T10:33:42.001Z,10.00
2023-03-06T10:34:39.993Z,11.10
2023-03-06T10:35:40.027Z,11.80
2023-03-06T10:36:39.982Z,9.90
2023-03-06T10:37:39.958Z,11.30
2023-03-06T10:38:39.994Z,10.60
2023-03-06T10:39:39.992Z,12.40
2023-03-06T10:40:39.968Z,12.30
2023-03-06T10:41:39.969Z,12.00
2023-03-06T10:42:39.926Z,11.00
2023-03-06T10:43:39.929Z,11.30
2023-03-06T10:44:39.921Z,9.40
2023-03-06T10:45:48.909Z,10.20
2023-03-06T10:46:41.915Z,10.10
2023-03-06T10:47:39.898Z,9.70
2023-03-06T10:48:41.929Z,10.40
2023-03-06T10:49:40.889Z,10.70
2023-03-06T10:50:39.972Z,10.50
2023-03-06T10:51:39.913Z,11.40
2023-03-06T10:52:39.869Z,10.20
2023-03-06T10:53:39.830Z,9.60
2023-03-06T10:54:39.843Z,10.50
2023-03-06T10:55:39.900Z,10.20
2023-03-06T10:56:39.852Z,10.70
2023-03-06T10:57:39.824Z,10.90
2023-03-06T10:58:40.067Z,11.40
2023-03-06T10:59:39.843Z,11.00
2023-03-06T11:00:39.777Z,10.80
2023-03-06T11:01:39.898Z,10.10
2023-03-06T11:02:39.900Z,10.20
2023-03-06T11:03:39.768Z,10.30
2023-03-06T11:04:39.814Z,10.70
2023-03-06T11:05:39.898Z,11.30
2023-03-06T11:06:39.745Z,11.30
2023-03-06T11:07:39.781Z,11.70
2023-03-06T11:08:39.738Z,11.20
2023-03-06T11:09:39.714Z,11.70
2023-03-06T11:10:39.696Z,10.70
2023-03-06T11:11:39.742Z,10.90
2023-03-06T11:12:39.742Z,11.50
2023-03-06T11:13:39.698Z,11.50
2023-03-06T11:14:39.738Z,10.60
2023-03-06T11:15:39.682Z,10.70
2023-03-06T11:16:39.675Z,11.20
2023-03-06T11:17:39.657Z,9.10
2023-03-06T11:18:40.184Z,10.00
2023-03-06T11:19:39.746Z,12.00
2023-03-06T11:20:51.138Z,11.50
2023-03-06T11:21:41.627Z,10.60
2023-03-06T11:22:39.639Z,10.50
2023-03-06T11:23:39.618Z,11.70
2023-03-06T11:24:39.697Z,11.20
2023-03-06T11:25:39.634Z,10.70
2023-03-06T11:26:39.616Z,8.60
2023-03-06T11:27:39.564Z,9.60
2023-03-06T11:28:39.568Z,10.80
2023-03-06T11:29:39.627Z,10.90
2023-03-06T11:30:39.570Z,9.80
2023-03-06T11:31:39.640Z,10.10
2023-03-06T11:32:39.681Z,11.40
2023-03-06T11:33:39.569Z,14.80
2023-03-06T11:34:39.676Z,12.40
2023-03-06T11:35:39.586Z,12.10
2023-03-06T11:36:39.509Z,11.30
2023-03-06T11:37:39.519Z,9.10
2023-03-06T11:38:39.530Z,12.00
2023-03-06T11:39:39.522Z,12.30
2023-03-06T11:40:39.526Z,11.80
2023-03-06T11:41:39.526Z,13.10
2023-03-06T11:42:39.470Z,11.80
2023-03-06T11:43:39.451Z,13.70
2023-03-06T11:44:39.556Z,13.10
2023-03-06T11:45:39.449Z,11.90
2023-03-06T11:46:39.610Z,11.20
2023-03-06T11:47:39.440Z,11.20
2023-03-06T11:48:39.453Z,11.30
2023-03-06T11:49:39.458Z,8.60
2023-03-06T11:50:39.423Z,12.20
2023-03-06T11:51:39.432Z,12.20
2023-03-06T11:52:39.418Z,11.50
2023-03-06T11:53:39.504Z,14.10
2023-03-06T11:54:39.520Z,14.60
2023-03-06T11:55:39.406Z,15.00
2023-03-06T11:56:39.369Z,13.70
2023-03-06T11:57:39.385Z,13.90
2023-03-06T11:58:39.358Z,14.00
2023-03-06T11:59:39.357Z,13.30
2023-03-06T12:00:39.381Z,12.20
2023-03-06T12:01:39.447Z,13.30
2023-03-06T12:02:39.351Z,11.10
2023-03-06T12:03:39.372Z,9.40
2023-03-06T12:04:39.364Z,7.20
2023-03-06T12:05:40.339Z,7.60
2023-03-06T12:06:39.384Z,8.90
2023-03-06T12:07:39.315Z,9.60
2023-03-06T12:08:39.277Z,8.20
2023-03-06T12:09:39.293Z,9.00
2023-03-06T12:10:39.255Z,9.00
2023-03-06T12:11:39.318Z,8.70
2023-03-06T12:12:39.249Z,8.50
2023-03-06T12:13:39.281Z,8.80
2023-03-06T12:14:39.262Z,7.80
2023-03-06T12:15:39.232Z,9.50
2023-03-06T12:16:39.314Z,9.00
2023-03-06T12:17:39.215Z,10.50
2023-03-06T12:18:40.286Z,9.60
2023-03-06T12:19:39.222Z,9.40
2023-03-06T12:20:39.197Z,10.40
2023-03-06T12:21:39.217Z,10.00
2023-03-06T12:22:39.347Z,10.00
2023-03-06T12:23:39.143Z,10.10
2023-03-06T12:24:39.212Z,10.50
2023-03-06T12:25:39.137Z,11.50
2023-03-06T12:26:39.132Z,9.40
2023-03-06T12:27:39.134Z,10.80
2023-03-06T12:28:39.105Z,10.80
2023-03-06T12:29:39.149Z,11.00
2023-03-06T12:30:39.100Z,10.00
2023-03-06T12:31:39.141Z,8.60
2023-03-06T12:32:39.152Z,9.80
2023-03-06T12:33:39.076Z,10.80
2023-03-06T12:34:39.138Z,10.10
2023-03-06T12:35:39.103Z,10.00
2023-03-06T12:36:39.300Z,9.80
2023-03-06T12:37:39.667Z,10.20
2023-03-06T12:38:39.031Z,10.80
2023-03-06T12:39:40.097Z,10.30
2023-03-06T12:40:39.020Z,10.20
2023-03-06T12:41:39.007Z,10.30
2023-03-06T12:42:39.015Z,10.00
2023-03-06T12:43:40.149Z,10.60
2023-03-06T12:44:40.010Z,9.90
2023-03-06T12:45:38.995Z,10.00
2023-03-06T12:46:38.990Z,9.70
2023-03-06T12:47:38.976Z,9.20
2023-03-06T12:48:38.971Z,10.20
2023-03-06T12:49:38.982Z,10.00
2023-03-06T12:50:38.967Z,10.10
2023-03-06T12:51:38.943Z,9.50
2023-03-06T12:52:38.957Z,10.20
2023-03-06T12:53:38.932Z,10.20
2023-03-06T12:54:39.935Z,9.70
2023-03-06T12:55:38.960Z,10.10
2023-03-06T12:56:39.573Z,10.20
2023-03-06T12:57:38.934Z,10.30
2023-03-06T12:58:38.910Z,9.80
2023-03-06T12:59:38.923Z,10.50
2023-03-06T13:00:38.883Z,10.10
2023-03-06T13:01:38.980Z,10.90
2023-03-06T13:02:38.893Z,11.30
2023-03-06T13:03:38.845Z,11.30
2023-03-06T13:04:38.858Z,11.50
2023-03-06T13:05:38.871Z,11.60
2023-03-06T13:06:44.978Z,12.30
2023-03-06T13:07:40.848Z,12.30
2023-03-06T13:08:38.825Z,11.20
2023-03-06T13:09:38.804Z,11.30
2023-03-06T13:10:38.815Z,12.10
2023-03-06T13:11:38.868Z,12.40